sensor_id;sensor_type;location;lat;lon;timestamp;P1;durP1;ratioP1;P2;durP2;ratioP2
36629;SDS011;36256;42.154;23.002;2022-10-22T00:01:36;23.88;;;18.05;;
36629;SDS011;36256;42.154;23.002;2022-10-22T00:04:04;26.25;;;17.13;;
36629;SDS011;36256;42.154;23.002;2022-10-22T00:06:31;23.42;;;17.33;;
36629;SDS011;36256;42.154;23.002;2022-10-22T00:08:58;23.83;;;17.02;;
36629;SDS011;36256;42.154;23.002;2022-10-22T00:11:25;23.92;;;16.85;;
36629;SDS011;36256;42.154;23.002;2022-10-22T00:13:52;22.60;;;16.50;;
36629;SDS011;36256;42.154;23.002;2022-10-22T00:16:19;24.15;;;17.60;;
36629;SDS011;36256;42.154;23.002;2022-10-22T00:18:45;21.80;;;17.30;;
36629;SDS011;36256;42.154;23.002;2022-10-22T00:21:12;27.02;;;17.00;;
36629;SDS011;36256;42.154;23.002;2022-10-22T00:23:40;27.02;;;16.75;;
36629;SDS011;36256;42.154;23.002;2022-10-22T00:26:07;22.65;;;15.63;;
36629;SDS011;36256;42.154;23.002;2022-10-22T00:28:35;23.83;;;16.40;;
36629;SDS011;36256;42.154;23.002;2022-10-22T00:31:01;21.13;;;15.85;;
36629;SDS011;36256;42.154;23.002;2022-10-22T00:33:28;25.57;;;16.53;;
36629;SDS011;36256;42.154;23.002;2022-10-22T00:35:55;23.75;;;16.45;;
36629;SDS011;36256;42.154;23.002;2022-10-22T00:38:22;22.60;;;16.25;;
36629;SDS011;36256;42.154;23.002;2022-10-22T00:40:48;24.33;;;16.15;;
36629;SDS011;36256;42.154;23.002;2022-10-22T00:43:17;17.63;;;12.20;;
36629;SDS011;36256;42.154;23.002;2022-10-22T00:45:44;25.40;;;16.80;;
36629;SDS011;36256;42.154;23.002;2022-10-22T00:48:14;23.65;;;16.35;;
36629;SDS011;36256;42.154;23.002;2022-10-22T00:53:22;24.10;;;16.25;;
36629;SDS011;36256;42.154;23.002;2022-10-22T00:56:08;23.88;;;15.60;;
36629;SDS011;36256;42.154;23.002;2022-10-22T00:58:35;22.77;;;15.90;;
36629;SDS011;36256;42.154;23.002;2022-10-22T01:01:05;22.30;;;15.93;;
36629;SDS011;36256;42.154;23.002;2022-10-22T01:03:34;24.77;;;16.50;;
36629;SDS011;36256;42.154;23.002;2022-10-22T01:06:02;22.55;;;15.48;;
36629;SDS011;36256;42.154;23.002;2022-10-22T01:11:20;24.17;;;16.67;;
36629;SDS011;36256;42.154;23.002;2022-10-22T01:14:17;24.60;;;17.10;;
36629;SDS011;36256;42.154;23.002;2022-10-22T01:17:30;25.52;;;16.67;;
36629;SDS011;36256;42.154;23.002;2022-10-22T01:25:50;24.83;;;16.90;;
36629;SDS011;36256;42.154;23.002;2022-10-22T01:31:24;27.58;;;18.73;;
36629;SDS011;36256;42.154;23.002;2022-10-22T01:34:05;28.00;;;18.65;;
36629;SDS011;36256;42.154;23.002;2022-10-22T01:36:33;26.25;;;18.33;;
36629;SDS011;36256;42.154;23.002;2022-10-22T01:39:02;25.23;;;18.55;;
36629;SDS011;36256;42.154;23.002;2022-10-22T01:41:30;25.55;;;17.35;;
36629;SDS011;36256;42.154;23.002;2022-10-22T01:43:57;27.27;;;18.63;;
36629;SDS011;36256;42.154;23.002;2022-10-22T01:46:25;26.35;;;18.50;;
36629;SDS011;36256;42.154;23.002;2022-10-22T01:58:01;23.80;;;17.27;;
36629;SDS011;36256;42.154;23.002;2022-10-22T02:00:59;27.60;;;18.52;;
36629;SDS011;36256;42.154;23.002;2022-10-22T02:03:38;27.10;;;18.13;;
36629;SDS011;36256;42.154;23.002;2022-10-22T02:06:12;26.65;;;17.90;;
36629;SDS011;36256;42.154;23.002;2022-10-22T02:08:43;21.75;;;15.27;;
36629;SDS011;36256;42.154;23.002;2022-10-22T02:11:12;21.35;;;15.30;;
36629;SDS011;36256;42.154;23.002;2022-10-22T02:13:45;20.63;;;15.20;;
36629;SDS011;36256;42.154;23.002;2022-10-22T02:16:29;23.77;;;15.73;;
36629;SDS011;36256;42.154;23.002;2022-10-22T02:19:00;22.13;;;15.98;;
36629;SDS011;36256;42.154;23.002;2022-10-22T02:21:31;22.60;;;15.90;;
36629;SDS011;36256;42.154;23.002;2022-10-22T02:23:58;20.88;;;15.77;;
36629;SDS011;36256;42.154;23.002;2022-10-22T02:26:31;24.65;;;15.63;;
36629;SDS011;36256;42.154;23.002;2022-10-22T02:29:05;22.80;;;15.85;;
36629;SDS011;36256;42.154;23.002;2022-10-22T02:31:38;22.27;;;15.52;;
36629;SDS011;36256;42.154;23.002;2022-10-22T02:34:09;22.85;;;16.73;;
36629;SDS011;36256;42.154;23.002;2022-10-22T02:36:40;25.60;;;17.88;;
36629;SDS011;36256;42.154;23.002;2022-10-22T02:39:14;22.63;;;16.33;;
36629;SDS011;36256;42.154;23.002;2022-10-22T02:41:46;24.65;;;16.17;;
36629;SDS011;36256;42.154;23.002;2022-10-22T02:44:13;25.00;;;17.33;;
36629;SDS011;36256;42.154;23.002;2022-10-22T02:46:41;28.05;;;18.73;;
36629;SDS011;36256;42.154;23.002;2022-10-22T02:49:08;25.73;;;18.70;;
36629;SDS011;36256;42.154;23.002;2022-10-22T02:51:34;28.90;;;20.10;;
36629;SDS011;36256;42.154;23.002;2022-10-22T02:54:01;29.57;;;20.27;;
36629;SDS011;36256;42.154;23.002;2022-10-22T02:56:28;30.20;;;20.20;;
36629;SDS011;36256;42.154;23.002;2022-10-22T02:58:54;27.83;;;19.80;;
36629;SDS011;36256;42.154;23.002;2022-10-22T03:01:21;24.45;;;15.48;;
36629;SDS011;36256;42.154;23.002;2022-10-22T03:03:47;30.77;;;20.63;;
36629;SDS011;36256;42.154;23.002;2022-10-22T03:06:14;33.75;;;20.40;;
36629;SDS011;36256;42.154;23.002;2022-10-22T03:11:08;28.33;;;18.17;;
36629;SDS011;36256;42.154;23.002;2022-10-22T03:13:34;29.35;;;19.40;;
36629;SDS011;36256;42.154;23.002;2022-10-22T03:16:01;29.70;;;18.25;;
36629;SDS011;36256;42.154;23.002;2022-10-22T03:18:28;21.17;;;15.90;;
36629;SDS011;36256;42.154;23.002;2022-10-22T03:21:03;22.90;;;16.40;;
36629;SDS011;36256;42.154;23.002;2022-10-22T03:23:48;22.08;;;15.93;;
36629;SDS011;36256;42.154;23.002;2022-10-22T03:26:15;21.70;;;15.13;;
36629;SDS011;36256;42.154;23.002;2022-10-22T03:28:41;19.60;;;14.48;;
36629;SDS011;36256;42.154;23.002;2022-10-22T03:31:08;21.65;;;14.88;;
36629;SDS011;36256;42.154;23.002;2022-10-22T03:33:35;24.30;;;16.40;;
36629;SDS011;36256;42.154;23.002;2022-10-22T03:36:01;24.07;;;16.27;;
36629;SDS011;36256;42.154;23.002;2022-10-22T03:38:28;25.27;;;17.33;;
36629;SDS011;36256;42.154;23.002;2022-10-22T03:40:55;28.67;;;17.33;;
36629;SDS011;36256;42.154;23.002;2022-10-22T03:43:22;26.50;;;18.67;;
36629;SDS011;36256;42.154;23.002;2022-10-22T03:45:49;25.67;;;18.30;;
36629;SDS011;36256;42.154;23.002;2022-10-22T03:48:15;26.83;;;18.25;;
36629;SDS011;36256;42.154;23.002;2022-10-22T03:50:42;32.27;;;19.07;;
36629;SDS011;36256;42.154;23.002;2022-10-22T03:53:08;29.88;;;20.25;;
36629;SDS011;36256;42.154;23.002;2022-10-22T03:55:35;29.05;;;19.30;;
36629;SDS011;36256;42.154;23.002;2022-10-22T03:58:03;28.10;;;18.92;;
36629;SDS011;36256;42.154;23.002;2022-10-22T04:00:31;29.85;;;18.77;;
36629;SDS011;36256;42.154;23.002;2022-10-22T04:02:59;27.60;;;17.63;;
36629;SDS011;36256;42.154;23.002;2022-10-22T04:05:26;20.52;;;13.25;;
36629;SDS011;36256;42.154;23.002;2022-10-22T04:07:52;26.43;;;18.67;;
36629;SDS011;36256;42.154;23.002;2022-10-22T04:10:19;28.53;;;20.37;;
36629;SDS011;36256;42.154;23.002;2022-10-22T04:12:46;30.50;;;18.57;;
36629;SDS011;36256;42.154;23.002;2022-10-22T04:15:13;28.15;;;16.92;;
36629;SDS011;36256;42.154;23.002;2022-10-22T04:17:40;21.73;;;16.00;;
36629;SDS011;36256;42.154;23.002;2022-10-22T04:20:07;25.45;;;16.48;;
36629;SDS011;36256;42.154;23.002;2022-10-22T04:22:34;25.10;;;16.77;;
36629;SDS011;36256;42.154;23.002;2022-10-22T04:25:01;24.42;;;15.77;;
36629;SDS011;36256;42.154;23.002;2022-10-22T04:27:29;23.27;;;15.80;;
36629;SDS011;36256;42.154;23.002;2022-10-22T04:29:57;26.60;;;16.42;;
36629;SDS011;36256;42.154;23.002;2022-10-22T04:32:24;26.30;;;16.55;;
36629;SDS011;36256;42.154;23.002;2022-10-22T04:34:52;23.20;;;16.85;;
36629;SDS011;36256;42.154;23.002;2022-10-22T04:37:18;23.83;;;16.20;;
36629;SDS011;36256;42.154;23.002;2022-10-22T04:39:45;27.38;;;16.65;;
36629;SDS011;36256;42.154;23.002;2022-10-22T04:42:12;24.83;;;16.48;;
36629;SDS011;36256;42.154;23.002;2022-10-22T04:44:38;20.55;;;14.77;;
36629;SDS011;36256;42.154;23.002;2022-10-22T04:47:05;21.93;;;14.67;;
36629;SDS011;36256;42.154;23.002;2022-10-22T04:49:31;20.50;;;14.97;;
36629;SDS011;36256;42.154;23.002;2022-10-22T04:51:58;22.67;;;15.03;;
36629;SDS011;36256;42.154;23.002;2022-10-22T04:54:24;25.90;;;14.23;;
36629;SDS011;36256;42.154;23.002;2022-10-22T04:56:57;19.00;;;14.07;;
36629;SDS011;36256;42.154;23.002;2022-10-22T04:59:23;21.47;;;14.83;;
36629;SDS011;36256;42.154;23.002;2022-10-22T05:01:50;20.42;;;14.82;;
36629;SDS011;36256;42.154;23.002;2022-10-22T05:04:17;21.90;;;15.45;;
36629;SDS011;36256;42.154;23.002;2022-10-22T05:06:44;23.42;;;15.38;;
36629;SDS011;36256;42.154;23.002;2022-10-22T05:09:13;22.00;;;15.60;;
36629;SDS011;36256;42.154;23.002;2022-10-22T05:11:43;24.80;;;18.05;;
36629;SDS011;36256;42.154;23.002;2022-10-22T05:14:11;39.60;;;24.48;;
36629;SDS011;36256;42.154;23.002;2022-10-22T05:16:38;34.75;;;22.55;;
36629;SDS011;36256;42.154;23.002;2022-10-22T05:19:05;35.90;;;21.13;;
36629;SDS011;36256;42.154;23.002;2022-10-22T05:21:33;30.55;;;20.23;;
36629;SDS011;36256;42.154;23.002;2022-10-22T05:23:59;37.25;;;22.13;;
36629;SDS011;36256;42.154;23.002;2022-10-22T05:26:26;48.17;;;29.38;;
36629;SDS011;36256;42.154;23.002;2022-10-22T05:28:55;46.05;;;26.90;;
36629;SDS011;36256;42.154;23.002;2022-10-22T05:31:21;54.45;;;28.42;;
36629;SDS011;36256;42.154;23.002;2022-10-22T05:33:48;42.13;;;26.48;;
36629;SDS011;36256;42.154;23.002;2022-10-22T05:36:19;47.80;;;25.88;;
36629;SDS011;36256;42.154;23.002;2022-10-22T05:38:47;40.22;;;26.73;;
36629;SDS011;36256;42.154;23.002;2022-10-22T05:41:15;40.92;;;25.35;;
36629;SDS011;36256;42.154;23.002;2022-10-22T05:43:43;39.80;;;24.80;;
36629;SDS011;36256;42.154;23.002;2022-10-22T05:46:11;41.17;;;25.50;;
36629;SDS011;36256;42.154;23.002;2022-10-22T05:48:54;39.17;;;25.58;;
36629;SDS011;36256;42.154;23.002;2022-10-22T05:51:24;41.97;;;25.70;;
36629;SDS011;36256;42.154;23.002;2022-10-22T05:53:54;37.58;;;23.92;;
36629;SDS011;36256;42.154;23.002;2022-10-22T05:56:23;34.22;;;22.25;;
36629;SDS011;36256;42.154;23.002;2022-10-22T05:58:51;27.75;;;20.02;;
36629;SDS011;36256;42.154;23.002;2022-10-22T06:01:22;31.45;;;19.73;;
36629;SDS011;36256;42.154;23.002;2022-10-22T06:03:55;25.25;;;18.25;;
36629;SDS011;36256;42.154;23.002;2022-10-22T06:08:52;21.75;;;16.77;;
36629;SDS011;36256;42.154;23.002;2022-10-22T06:11:21;22.40;;;16.85;;
36629;SDS011;36256;42.154;23.002;2022-10-22T06:13:49;23.45;;;16.33;;
36629;SDS011;36256;42.154;23.002;2022-10-22T06:18:42;20.95;;;15.55;;
36629;SDS011;36256;42.154;23.002;2022-10-22T06:21:10;22.95;;;15.27;;
36629;SDS011;36256;42.154;23.002;2022-10-22T06:23:38;30.02;;;20.98;;
36629;SDS011;36256;42.154;23.002;2022-10-22T06:28:32;32.65;;;22.35;;
36629;SDS011;36256;42.154;23.002;2022-10-22T06:31:00;31.38;;;20.60;;
36629;SDS011;36256;42.154;23.002;2022-10-22T06:33:28;29.50;;;19.48;;
36629;SDS011;36256;42.154;23.002;2022-10-22T06:36:03;29.13;;;19.65;;
36629;SDS011;36256;42.154;23.002;2022-10-22T06:38:34;28.08;;;19.83;;
36629;SDS011;36256;42.154;23.002;2022-10-22T06:41:01;32.73;;;19.13;;
36629;SDS011;36256;42.154;23.002;2022-10-22T06:43:31;26.45;;;18.58;;
36629;SDS011;36256;42.154;23.002;2022-10-22T06:46:02;27.27;;;17.93;;
36629;SDS011;36256;42.154;23.002;2022-10-22T06:48:31;26.45;;;18.08;;
36629;SDS011;36256;42.154;23.002;2022-10-22T06:53:29;27.90;;;16.85;;
36629;SDS011;36256;42.154;23.002;2022-10-22T06:55:55;24.38;;;16.05;;
36629;SDS011;36256;42.154;23.002;2022-10-22T06:58:22;26.83;;;15.55;;
36629;SDS011;36256;42.154;23.002;2022-10-22T07:00:49;40.20;;;27.52;;
36629;SDS011;36256;42.154;23.002;2022-10-22T07:03:26;21.42;;;14.70;;
36629;SDS011;36256;42.154;23.002;2022-10-22T07:05:52;20.53;;;14.07;;
36629;SDS011;36256;42.154;23.002;2022-10-22T07:08:19;19.37;;;14.53;;
36629;SDS011;36256;42.154;23.002;2022-10-22T07:10:45;20.30;;;12.77;;
36629;SDS011;36256;42.154;23.002;2022-10-22T07:13:12;14.65;;;11.07;;
36629;SDS011;36256;42.154;23.002;2022-10-22T07:15:39;15.47;;;10.60;;
36629;SDS011;36256;42.154;23.002;2022-10-22T07:18:05;13.23;;;10.37;;
36629;SDS011;36256;42.154;23.002;2022-10-22T07:20:32;12.53;;;9.00;;
36629;SDS011;36256;42.154;23.002;2022-10-22T07:22:58;12.33;;;9.60;;
36629;SDS011;36256;42.154;23.002;2022-10-22T07:25:25;61.90;;;28.85;;
36629;SDS011;36256;42.154;23.002;2022-10-22T07:27:51;20.10;;;12.47;;
36629;SDS011;36256;42.154;23.002;2022-10-22T07:30:18;12.57;;;9.95;;
36629;SDS011;36256;42.154;23.002;2022-10-22T07:32:44;14.17;;;10.03;;
36629;SDS011;36256;42.154;23.002;2022-10-22T07:35:11;13.83;;;11.30;;
36629;SDS011;36256;42.154;23.002;2022-10-22T07:37:37;17.00;;;11.73;;
36629;SDS011;36256;42.154;23.002;2022-10-22T07:40:05;21.00;;;11.82;;
36629;SDS011;36256;42.154;23.002;2022-10-22T07:42:31;13.35;;;10.90;;
36629;SDS011;36256;42.154;23.002;2022-10-22T07:44:58;40.70;;;22.77;;
36629;SDS011;36256;42.154;23.002;2022-10-22T07:47:25;31.27;;;18.47;;
36629;SDS011;36256;42.154;23.002;2022-10-22T07:49:51;19.93;;;14.30;;
36629;SDS011;36256;42.154;23.002;2022-10-22T07:52:18;16.13;;;13.23;;
36629;SDS011;36256;42.154;23.002;2022-10-22T07:54:44;23.63;;;15.50;;
36629;SDS011;36256;42.154;23.002;2022-10-22T07:57:11;18.42;;;13.93;;
36629;SDS011;36256;42.154;23.002;2022-10-22T07:59:37;21.40;;;14.00;;
36629;SDS011;36256;42.154;23.002;2022-10-22T08:02:04;17.07;;;12.83;;
36629;SDS011;36256;42.154;23.002;2022-10-22T08:04:30;17.70;;;12.23;;
36629;SDS011;36256;42.154;23.002;2022-10-22T08:06:57;19.17;;;11.67;;
36629;SDS011;36256;42.154;23.002;2022-10-22T08:09:23;15.83;;;11.83;;
36629;SDS011;36256;42.154;23.002;2022-10-22T08:11:50;19.27;;;11.70;;
36629;SDS011;36256;42.154;23.002;2022-10-22T08:14:16;21.80;;;11.73;;
36629;SDS011;36256;42.154;23.002;2022-10-22T08:16:43;19.20;;;11.93;;
36629;SDS011;36256;42.154;23.002;2022-10-22T08:19:10;15.70;;;12.02;;
36629;SDS011;36256;42.154;23.002;2022-10-22T08:21:36;15.63;;;11.00;;
36629;SDS011;36256;42.154;23.002;2022-10-22T08:24:03;15.32;;;10.85;;
36629;SDS011;36256;42.154;23.002;2022-10-22T08:26:30;13.63;;;10.70;;
36629;SDS011;36256;42.154;23.002;2022-10-22T08:28:56;18.35;;;10.48;;
36629;SDS011;36256;42.154;23.002;2022-10-22T08:31:23;22.43;;;11.00;;
36629;SDS011;36256;42.154;23.002;2022-10-22T08:33:49;14.40;;;10.40;;
36629;SDS011;36256;42.154;23.002;2022-10-22T08:36:16;19.03;;;10.70;;
36629;SDS011;36256;42.154;23.002;2022-10-22T08:38:42;16.57;;;12.70;;
36629;SDS011;36256;42.154;23.002;2022-10-22T08:49:20;13.82;;;10.52;;
36629;SDS011;36256;42.154;23.002;2022-10-22T08:51:50;13.85;;;10.68;;
36629;SDS011;36256;42.154;23.002;2022-10-22T09:00:04;12.70;;;9.68;;
36629;SDS011;36256;42.154;23.002;2022-10-22T09:05:11;14.60;;;9.63;;
36629;SDS011;36256;42.154;23.002;2022-10-22T09:07:41;15.80;;;9.90;;
36629;SDS011;36256;42.154;23.002;2022-10-22T09:10:10;10.55;;;8.82;;
36629;SDS011;36256;42.154;23.002;2022-10-22T09:12:38;14.43;;;9.45;;
36629;SDS011;36256;42.154;23.002;2022-10-22T09:15:04;11.63;;;9.68;;
36629;SDS011;36256;42.154;23.002;2022-10-22T09:17:40;14.90;;;9.95;;
36629;SDS011;36256;42.154;23.002;2022-10-22T09:22:54;16.35;;;11.00;;
36629;SDS011;36256;42.154;23.002;2022-10-22T09:25:45;13.10;;;10.48;;
36629;SDS011;36256;42.154;23.002;2022-10-22T09:28:14;15.48;;;11.63;;
36629;SDS011;36256;42.154;23.002;2022-10-22T09:30:41;14.40;;;10.98;;
36629;SDS011;36256;42.154;23.002;2022-10-22T09:35:42;14.87;;;11.13;;
36629;SDS011;36256;42.154;23.002;2022-10-22T09:38:12;23.33;;;12.18;;
36629;SDS011;36256;42.154;23.002;2022-10-22T09:40:44;19.60;;;12.20;;
36629;SDS011;36256;42.154;23.002;2022-10-22T09:43:13;28.15;;;20.30;;
36629;SDS011;36256;42.154;23.002;2022-10-22T09:45:41;21.45;;;15.55;;
36629;SDS011;36256;42.154;23.002;2022-10-22T09:48:09;14.88;;;11.07;;
36629;SDS011;36256;42.154;23.002;2022-10-22T09:50:42;16.00;;;12.60;;
36629;SDS011;36256;42.154;23.002;2022-10-22T09:53:28;16.08;;;12.10;;
36629;SDS011;36256;42.154;23.002;2022-10-22T09:55:57;14.38;;;11.35;;
36629;SDS011;36256;42.154;23.002;2022-10-22T09:58:25;15.93;;;11.98;;
36629;SDS011;36256;42.154;23.002;2022-10-22T10:03:21;12.15;;;9.93;;
36629;SDS011;36256;42.154;23.002;2022-10-22T10:05:53;14.45;;;10.93;;
36629;SDS011;36256;42.154;23.002;2022-10-22T10:08:28;13.65;;;9.60;;
36629;SDS011;36256;42.154;23.002;2022-10-22T10:13:42;28.30;;;15.77;;
36629;SDS011;36256;42.154;23.002;2022-10-22T10:22:09;23.13;;;14.10;;
36629;SDS011;36256;42.154;23.002;2022-10-22T10:27:55;13.73;;;10.13;;
36629;SDS011;36256;42.154;23.002;2022-10-22T10:30:25;15.80;;;10.55;;
36629;SDS011;36256;42.154;23.002;2022-10-22T10:35:45;32.33;;;17.55;;
36629;SDS011;36256;42.154;23.002;2022-10-22T10:38:23;17.10;;;11.05;;
36629;SDS011;36256;42.154;23.002;2022-10-22T10:49:33;14.40;;;9.23;;
36629;SDS011;36256;42.154;23.002;2022-10-22T11:00:18;15.93;;;11.60;;
36629;SDS011;36256;42.154;23.002;2022-10-22T11:05:45;14.55;;;9.55;;
36629;SDS011;36256;42.154;23.002;2022-10-22T11:08:22;11.32;;;9.38;;
36629;SDS011;36256;42.154;23.002;2022-10-22T11:10:58;14.75;;;9.65;;
36629;SDS011;36256;42.154;23.002;2022-10-22T11:14:04;17.27;;;10.75;;
36629;SDS011;36256;42.154;23.002;2022-10-22T11:16:41;14.65;;;8.23;;
36629;SDS011;36256;42.154;23.002;2022-10-22T11:19:18;14.55;;;8.63;;
36629;SDS011;36256;42.154;23.002;2022-10-22T11:22:10;14.13;;;8.80;;
36629;SDS011;36256;42.154;23.002;2022-10-22T11:24:45;13.35;;;8.10;;
36629;SDS011;36256;42.154;23.002;2022-10-22T11:27:24;13.63;;;7.18;;
36629;SDS011;36256;42.154;23.002;2022-10-22T11:30:00;12.93;;;6.53;;
36629;SDS011;36256;42.154;23.002;2022-10-22T11:32:31;8.20;;;5.60;;
36629;SDS011;36256;42.154;23.002;2022-10-22T11:35:00;9.93;;;5.80;;
36629;SDS011;36256;42.154;23.002;2022-10-22T11:37:30;11.02;;;5.40;;
36629;SDS011;36256;42.154;23.002;2022-10-22T11:40:05;8.95;;;5.22;;
36629;SDS011;36256;42.154;23.002;2022-10-22T11:42:40;12.52;;;5.60;;
36629;SDS011;36256;42.154;23.002;2022-10-22T11:55:52;8.20;;;5.75;;
36629;SDS011;36256;42.154;23.002;2022-10-22T11:58:28;11.90;;;6.10;;
36629;SDS011;36256;42.154;23.002;2022-10-22T12:08:30;9.38;;;5.35;;
36629;SDS011;36256;42.154;23.002;2022-10-22T12:19:23;8.02;;;5.20;;
36629;SDS011;36256;42.154;23.002;2022-10-22T12:21:53;16.15;;;7.07;;
36629;SDS011;36256;42.154;23.002;2022-10-22T12:24:30;8.50;;;5.15;;
36629;SDS011;36256;42.154;23.002;2022-10-22T12:27:00;11.50;;;5.40;;
36629;SDS011;36256;42.154;23.002;2022-10-22T12:29:29;9.48;;;5.22;;
36629;SDS011;36256;42.154;23.002;2022-10-22T12:32:00;8.90;;;4.65;;
36629;SDS011;36256;42.154;23.002;2022-10-22T12:34:28;8.07;;;5.97;;
36629;SDS011;36256;42.154;23.002;2022-10-22T12:36:55;4.95;;;4.13;;
36629;SDS011;36256;42.154;23.002;2022-10-22T12:39:24;7.78;;;4.38;;
36629;SDS011;36256;42.154;23.002;2022-10-22T12:41:52;11.20;;;6.20;;
36629;SDS011;36256;42.154;23.002;2022-10-22T12:44:20;5.45;;;4.18;;
36629;SDS011;36256;42.154;23.002;2022-10-22T12:46:47;7.30;;;4.85;;
36629;SDS011;36256;42.154;23.002;2022-10-22T12:49:21;9.50;;;6.10;;
36629;SDS011;36256;42.154;23.002;2022-10-22T12:51:52;7.15;;;4.93;;
36629;SDS011;36256;42.154;23.002;2022-10-22T12:56:54;7.00;;;4.95;;
36629;SDS011;36256;42.154;23.002;2022-10-22T12:59:31;6.95;;;5.28;;
36629;SDS011;36256;42.154;23.002;2022-10-22T13:02:01;9.20;;;6.15;;
36629;SDS011;36256;42.154;23.002;2022-10-22T13:04:37;11.80;;;5.70;;
36629;SDS011;36256;42.154;23.002;2022-10-22T13:09:57;11.10;;;5.30;;
36629;SDS011;36256;42.154;23.002;2022-10-22T13:12:25;7.60;;;4.70;;
36629;SDS011;36256;42.154;23.002;2022-10-22T13:14:53;7.97;;;5.45;;
36629;SDS011;36256;42.154;23.002;2022-10-22T13:17:36;11.60;;;4.60;;
36629;SDS011;36256;42.154;23.002;2022-10-22T13:20:19;6.50;;;5.15;;
36629;SDS011;36256;42.154;23.002;2022-10-22T13:25:23;9.70;;;5.32;;
36629;SDS011;36256;42.154;23.002;2022-10-22T13:27:58;5.35;;;4.85;;
36629;SDS011;36256;42.154;23.002;2022-10-22T13:35:42;9.25;;;6.30;;
36629;SDS011;36256;42.154;23.002;2022-10-22T13:38:14;12.75;;;4.97;;
36629;SDS011;36256;42.154;23.002;2022-10-22T13:40:45;8.25;;;4.95;;
36629;SDS011;36256;42.154;23.002;2022-10-22T13:43:12;9.90;;;6.82;;
36629;SDS011;36256;42.154;23.002;2022-10-22T13:45:39;8.93;;;5.70;;
36629;SDS011;36256;42.154;23.002;2022-10-22T13:48:05;8.48;;;5.35;;
36629;SDS011;36256;42.154;23.002;2022-10-22T13:50:38;8.43;;;4.88;;
36629;SDS011;36256;42.154;23.002;2022-10-22T13:53:04;6.03;;;5.07;;
36629;SDS011;36256;42.154;23.002;2022-10-22T13:55:31;6.63;;;4.90;;
36629;SDS011;36256;42.154;23.002;2022-10-22T14:00:40;9.02;;;5.10;;
36629;SDS011;36256;42.154;23.002;2022-10-22T14:03:09;15.07;;;5.82;;
36629;SDS011;36256;42.154;23.002;2022-10-22T14:05:37;10.02;;;6.53;;
36629;SDS011;36256;42.154;23.002;2022-10-22T14:08:08;10.13;;;6.72;;
36629;SDS011;36256;42.154;23.002;2022-10-22T14:10:39;11.90;;;6.25;;
36629;SDS011;36256;42.154;23.002;2022-10-22T14:13:11;10.37;;;7.20;;
36629;SDS011;36256;42.154;23.002;2022-10-22T14:15:39;9.13;;;6.75;;
36629;SDS011;36256;42.154;23.002;2022-10-22T14:18:08;8.30;;;5.75;;
36629;SDS011;36256;42.154;23.002;2022-10-22T14:20:40;9.07;;;5.65;;
36629;SDS011;36256;42.154;23.002;2022-10-22T14:23:12;10.65;;;6.53;;
36629;SDS011;36256;42.154;23.002;2022-10-22T14:25:39;10.00;;;6.78;;
36629;SDS011;36256;42.154;23.002;2022-10-22T14:28:07;9.75;;;6.28;;
36629;SDS011;36256;42.154;23.002;2022-10-22T14:30:36;10.13;;;5.97;;
36629;SDS011;36256;42.154;23.002;2022-10-22T14:33:08;8.70;;;6.43;;
36629;SDS011;36256;42.154;23.002;2022-10-22T14:35:39;10.05;;;6.80;;
36629;SDS011;36256;42.154;23.002;2022-10-22T14:38:05;13.10;;;7.27;;
36629;SDS011;36256;42.154;23.002;2022-10-22T14:40:32;14.02;;;7.18;;
36629;SDS011;36256;42.154;23.002;2022-10-22T14:42:58;20.88;;;7.82;;
36629;SDS011;36256;42.154;23.002;2022-10-22T14:45:25;14.03;;;6.80;;
36629;SDS011;36256;42.154;23.002;2022-10-22T14:47:52;11.88;;;6.57;;
36629;SDS011;36256;42.154;23.002;2022-10-22T14:50:20;11.02;;;7.25;;
36629;SDS011;36256;42.154;23.002;2022-10-22T14:52:47;14.20;;;9.10;;
36629;SDS011;36256;42.154;23.002;2022-10-22T14:55:14;10.77;;;7.60;;
36629;SDS011;36256;42.154;23.002;2022-10-22T14:57:42;14.02;;;7.65;;
36629;SDS011;36256;42.154;23.002;2022-10-22T15:02:40;15.32;;;8.43;;
36629;SDS011;36256;42.154;23.002;2022-10-22T15:05:08;18.85;;;8.80;;
36629;SDS011;36256;42.154;23.002;2022-10-22T15:07:35;19.83;;;13.15;;
36629;SDS011;36256;42.154;23.002;2022-10-22T15:10:03;53.70;;;33.22;;
36629;SDS011;36256;42.154;23.002;2022-10-22T15:12:31;66.00;;;44.97;;
36629;SDS011;36256;42.154;23.002;2022-10-22T15:14:58;30.50;;;17.92;;
36629;SDS011;36256;42.154;23.002;2022-10-22T15:17:24;21.67;;;13.73;;
36629;SDS011;36256;42.154;23.002;2022-10-22T15:19:51;19.58;;;12.75;;
36629;SDS011;36256;42.154;23.002;2022-10-22T15:22:18;14.45;;;10.52;;
36629;SDS011;36256;42.154;23.002;2022-10-22T15:24:44;13.13;;;9.80;;
36629;SDS011;36256;42.154;23.002;2022-10-22T15:27:11;19.15;;;11.70;;
36629;SDS011;36256;42.154;23.002;2022-10-22T15:29:39;15.95;;;10.95;;
36629;SDS011;36256;42.154;23.002;2022-10-22T15:32:07;16.63;;;9.70;;
36629;SDS011;36256;42.154;23.002;2022-10-22T15:34:37;14.48;;;9.18;;
36629;SDS011;36256;42.154;23.002;2022-10-22T15:37:06;15.35;;;9.85;;
36629;SDS011;36256;42.154;23.002;2022-10-22T15:39:38;15.88;;;10.00;;
36629;SDS011;36256;42.154;23.002;2022-10-22T15:42:05;14.77;;;8.98;;
36629;SDS011;36256;42.154;23.002;2022-10-22T15:44:32;22.05;;;13.05;;
36629;SDS011;36256;42.154;23.002;2022-10-22T15:46:59;22.15;;;14.07;;
36629;SDS011;36256;42.154;23.002;2022-10-22T15:49:28;27.85;;;16.13;;
36629;SDS011;36256;42.154;23.002;2022-10-22T15:51:55;21.88;;;14.40;;
36629;SDS011;36256;42.154;23.002;2022-10-22T15:54:23;21.88;;;15.40;;
36629;SDS011;36256;42.154;23.002;2022-10-22T15:56:53;26.38;;;14.85;;
36629;SDS011;36256;42.154;23.002;2022-10-22T15:59:21;19.55;;;12.20;;
36629;SDS011;36256;42.154;23.002;2022-10-22T16:01:48;18.27;;;11.35;;
36629;SDS011;36256;42.154;23.002;2022-10-22T16:04:15;13.57;;;9.55;;
36629;SDS011;36256;42.154;23.002;2022-10-22T16:06:44;18.08;;;9.43;;
36629;SDS011;36256;42.154;23.002;2022-10-22T16:09:17;15.63;;;10.00;;
36629;SDS011;36256;42.154;23.002;2022-10-22T16:11:45;11.38;;;9.30;;
36629;SDS011;36256;42.154;23.002;2022-10-22T16:14:13;21.08;;;12.63;;
36629;SDS011;36256;42.154;23.002;2022-10-22T16:16:43;15.40;;;11.15;;
36629;SDS011;36256;42.154;23.002;2022-10-22T16:19:11;21.30;;;14.75;;
36629;SDS011;36256;42.154;23.002;2022-10-22T16:21:39;17.27;;;12.32;;
36629;SDS011;36256;42.154;23.002;2022-10-22T16:24:07;15.68;;;10.30;;
36629;SDS011;36256;42.154;23.002;2022-10-22T16:26:34;13.10;;;10.25;;
36629;SDS011;36256;42.154;23.002;2022-10-22T16:29:03;17.27;;;9.90;;
36629;SDS011;36256;42.154;23.002;2022-10-22T16:31:30;14.60;;;10.95;;
36629;SDS011;36256;42.154;23.002;2022-10-22T16:33:57;19.60;;;10.87;;
36629;SDS011;36256;42.154;23.002;2022-10-22T16:36:24;21.70;;;11.38;;
36629;SDS011;36256;42.154;23.002;2022-10-22T16:38:50;15.57;;;10.73;;
36629;SDS011;36256;42.154;23.002;2022-10-22T16:41:18;14.88;;;10.43;;
36629;SDS011;36256;42.154;23.002;2022-10-22T16:43:48;12.80;;;9.68;;
36629;SDS011;36256;42.154;23.002;2022-10-22T16:46:17;13.57;;;8.98;;